Time;durP1;ratioP1;P1;durP2;ratioP2;P2;SDS_P1;SDS_P2;PMS_P1;PMS_P2;Temp;Humidity;BMP_temperature;BMP_pressure;BME280_temperature;BME280_humidity;BME280_pressure;Samples;Min_cycle;Max_cycle;Signal;HPM_P1;HPM_P2
2021/11/04 00:01:28;;;;;;;59.03;31.63;;;;;;;;;;5070401;28;20420;-67
2021/11/04 00:03:54;;;;;;;60.13;31.45;;;;;;;;;;5071145;28;20082;-67
2021/11/04 00:06:20;;;;;;;62.58;33.28;;;;;;;;;;5070229;28;20103;-66
2021/11/04 00:08:46;;;;;;;59.50;30.50;;;;;;;;;;5071457;28;20511;-66
2021/11/04 00:11:12;;;;;;;58.38;31.63;;;;;;;;;;5069913;28;20111;-67
2021/11/04 00:13:38;;;;;;;54.15;28.38;;;;;;;;;;5071164;28;20055;-67
2021/11/04 00:16:08;;;;;;;59.72;32.38;;;;;;;;;;5070017;28;20025;-67
2021/11/04 00:18:34;;;;;;;59.75;31.40;;;;;;;;;;5071471;28;20107;-67
2021/11/04 00:21:00;;;;;;;59.72;32.38;;;;;;;;;;5071286;28;20063;-67
2021/11/04 00:23:26;;;;;;;60.30;30.70;;;;;;;;;;5069761;28;20180;-67
2021/11/04 00:25:52;;;;;;;58.92;30.25;;;;;;;;;;5069703;28;20153;-67
2021/11/04 00:28:18;;;;;;;60.90;30.95;;;;;;;;;;5071254;28;20499;-67
2021/11/04 00:30:44;;;;;;;61.22;30.40;;;;;;;;;;5071178;28;20017;-67
2021/11/04 00:33:10;;;;;;;66.85;32.80;;;;;;;;;;5069624;28;20039;-66
2021/11/04 00:35:39;;;;;;;57.65;31.45;;;;;;;;;;5071365;28;20021;-66
2021/11/04 00:38:05;;;;;;;56.88;30.00;;;;;;;;;;5071140;28;20078;-66
2021/11/04 00:40:32;;;;;;;61.78;31.17;;;;;;;;;;5069595;28;20032;-67
2021/11/04 00:42:58;;;;;;;56.22;31.77;;;;;;;;;;5069695;28;20036;-68
2021/11/04 00:45:24;;;;;;;57.20;31.17;;;;;;;;;;5069418;28;20058;-67
2021/11/04 00:47:51;;;;;;;55.30;28.42;;;;;;;;;;5070819;28;20070;-67
2021/11/04 00:50:18;;;;;;;57.00;31.20;;;;;;;;;;5069626;28;20056;-67
2021/11/04 00:52:44;;;;;;;59.45;31.75;;;;;;;;;;5069498;28;20055;-67
2021/11/04 00:55:10;;;;;;;60.60;30.58;;;;;;;;;;5070540;28;20078;-67
2021/11/04 00:57:37;;;;;;;61.08;30.35;;;;;;;;;;5070873;28;20116;-67
2021/11/04 01:00:07;;;;;;;61.17;30.38;;;;;;;;;;5070660;28;20028;-67
2021/11/04 01:02:33;;;;;;;65.30;32.88;;;;;;;;;;5070727;28;20188;-67
2021/11/04 01:04:59;;;;;;;62.65;31.63;;;;;;;;;;5070390;28;20488;-66
2021/11/04 01:07:25;;;;;;;61.70;30.48;;;;;;;;;;5069744;28;20025;-68
2021/11/04 01:09:51;;;;;;;64.05;31.35;;;;;;;;;;5069749;28;20025;-67
2021/11/04 01:12:17;;;;;;;59.05;29.70;;;;;;;;;;5071156;28;20075;-69
2021/11/04 01:14:43;;;;;;;54.33;27.63;;;;;;;;;;5069629;28;20088;-68
2021/11/04 01:17:10;;;;;;;57.08;29.65;;;;;;;;;;5069665;28;20033;-68
2021/11/04 01:19:36;;;;;;;63.95;31.00;;;;;;;;;;5071293;28;20142;-67
2021/11/04 01:22:02;;;;;;;58.70;29.50;;;;;;;;;;5071266;28;20050;-67
2021/11/04 01:24:28;;;;;;;60.05;28.30;;;;;;;;;;5073758;28;20021;-68
2021/11/04 01:26:54;;;;;;;59.70;29.55;;;;;;;;;;5073173;28;20039;-67
2021/11/04 01:29:20;;;;;;;61.00;31.10;;;;;;;;;;5074684;28;20467;-67
2021/11/04 01:31:46;;;;;;;58.53;29.70;;;;;;;;;;5073386;28;20433;-68
2021/11/04 01:34:12;;;;;;;61.72;30.85;;;;;;;;;;5074593;28;20096;-68
2021/11/04 01:36:41;;;;;;;60.42;29.20;;;;;;;;;;5074625;28;20051;-67
2021/11/04 01:39:07;;;;;;;61.83;31.73;;;;;;;;;;5072994;28;20042;-67
2021/11/04 01:41:34;;;;;;;61.95;32.30;;;;;;;;;;5072829;28;20065;-67
2021/11/04 01:44:00;;;;;;;59.58;30.38;;;;;;;;;;5074100;28;20028;-67
2021/11/04 01:46:26;;;;;;;58.80;28.73;;;;;;;;;;5074101;28;20055;-67
2021/11/04 01:48:53;;;;;;;59.60;30.40;;;;;;;;;;5074278;28;20468;-67
2021/11/04 01:51:19;;;;;;;60.65;30.42;;;;;;;;;;5074042;28;20040;-67
2021/11/04 01:53:46;;;;;;;62.85;30.58;;;;;;;;;;5073957;28;20031;-67
2021/11/04 01:56:12;;;;;;;60.20;30.67;;;;;;;;;;5074334;28;20098;-67
2021/11/04 01:58:38;;;;;;;60.67;29.88;;;;;;;;;;5072677;28;20020;-67
2021/11/04 02:01:04;;;;;;;59.63;31.13;;;;;;;;;;5072754;28;20032;-67
2021/11/04 02:03:49;;;;;;;63.88;33.33;;;;;;;;;;5072288;28;20029;-67
2021/11/04 02:06:33;;;;;;;64.28;30.25;;;;;;;;;;5071787;28;20021;-67
2021/11/04 02:09:08;;;;;;;63.40;31.67;;;;;;;;;;5073824;28;20488;-66
2021/11/04 02:11:37;;;;;;;60.45;31.65;;;;;;;;;;5072634;28;20024;-67
2021/11/04 02:14:16;;;;;;;61.55;29.65;;;;;;;;;;5073497;28;20028;-67
2021/11/04 02:16:42;;;;;;;57.63;30.33;;;;;;;;;;5073537;28;20029;-66
2021/11/04 02:19:27;;;;;;;69.10;34.05;;;;;;;;;;5072320;28;20040;-67
2021/11/04 02:22:01;;;;;;;64.78;34.17;;;;;;;;;;5073485;28;20093;-67
2021/11/04 02:24:45;;;;;;;66.55;32.33;;;;;;;;;;5073181;28;20095;-67
2021/11/04 02:27:12;;;;;;;66.53;32.03;;;;;;;;;;5072012;28;20029;-67
2021/11/04 02:29:42;;;;;;;60.67;32.78;;;;;;;;;;5072133;28;20083;-67
2021/11/04 02:32:09;;;;;;;65.47;33.13;;;;;;;;;;5073825;28;20031;-67
2021/11/04 02:34:38;;;;;;;69.22;32.70;;;;;;;;;;5072751;28;20473;-67
2021/11/04 02:37:05;;;;;;;73.82;33.63;;;;;;;;;;5071950;28;20450;-67
2021/11/04 02:39:31;;;;;;;68.20;31.75;;;;;;;;;;5073257;28;20032;-67
2021/11/04 02:41:57;;;;;;;64.22;33.75;;;;;;;;;;5073164;28;20414;-67
2021/11/04 02:44:25;;;;;;;65.25;32.05;;;;;;;;;;5072708;28;20060;-68
2021/11/04 02:46:51;;;;;;;62.72;32.42;;;;;;;;;;5073028;28;20571;-66
2021/11/04 02:49:17;;;;;;;66.38;33.22;;;;;;;;;;5073137;28;20365;-67
2021/11/04 02:51:43;;;;;;;65.03;32.45;;;;;;;;;;5071223;28;20440;-67
2021/11/04 02:54:10;;;;;;;71.88;32.97;;;;;;;;;;5071509;28;20025;-67
2021/11/04 02:56:52;;;;;;;66.18;35.15;;;;;;;;;;5072756;28;20479;-66
2021/11/04 02:59:19;;;;;;;66.88;33.83;;;;;;;;;;5073061;28;20046;-67
2021/11/04 03:01:46;;;;;;;64.80;31.67;;;;;;;;;;5071565;28;20026;-66
2021/11/04 03:04:14;;;;;;;63.92;32.92;;;;;;;;;;5072461;28;20043;-67
2021/11/04 03:06:40;;;;;;;63.03;30.02;;;;;;;;;;5072570;28;20029;-67
2021/11/04 03:09:06;;;;;;;63.78;30.10;;;;;;;;;;5072696;28;20021;-67
2021/11/04 03:11:32;;;;;;;70.13;31.15;;;;;;;;;;5072762;28;20020;-66
2021/11/04 03:13:58;;;;;;;72.18;35.25;;;;;;;;;;5071353;28;20051;-67
2021/11/04 03:16:24;;;;;;;62.40;30.70;;;;;;;;;;5071449;28;20099;-66
2021/11/04 03:18:51;;;;;;;67.78;30.98;;;;;;;;;;5072630;28;20468;-67
2021/11/04 03:21:18;;;;;;;69.25;32.03;;;;;;;;;;5071276;28;20464;-67
2021/11/04 03:23:44;;;;;;;64.22;32.20;;;;;;;;;;5072245;28;20163;-67
2021/11/04 03:26:11;;;;;;;63.15;32.35;;;;;;;;;;5072195;28;20028;-66
2021/11/04 03:28:38;;;;;;;69.00;32.65;;;;;;;;;;5072099;28;20489;-67
2021/11/04 03:31:04;;;;;;;62.10;29.73;;;;;;;;;;5070831;28;20016;-66
2021/11/04 03:33:30;;;;;;;70.78;32.55;;;;;;;;;;5071927;28;20034;-66
2021/11/04 03:35:57;;;;;;;66.90;31.95;;;;;;;;;;5072044;28;20063;-66
2021/11/04 03:38:23;;;;;;;68.78;32.28;;;;;;;;;;5072088;28;20139;-67
2021/11/04 03:40:50;;;;;;;71.45;32.22;;;;;;;;;;5072027;28;20036;-67
2021/11/04 03:43:16;;;;;;;67.63;33.42;;;;;;;;;;5071654;28;20029;-67
2021/11/04 03:45:42;;;;;;;68.63;31.23;;;;;;;;;;5069692;28;20024;-66
2021/11/04 03:48:08;;;;;;;63.65;31.58;;;;;;;;;;5070559;28;20412;-66
2021/11/04 03:50:36;;;;;;;69.13;31.95;;;;;;;;;;5071726;28;20017;-66
2021/11/04 03:53:02;;;;;;;70.28;29.98;;;;;;;;;;5071886;28;20023;-67
2021/11/04 03:55:32;;;;;;;74.60;32.58;;;;;;;;;;5071434;28;20036;-66
2021/11/04 03:57:59;;;;;;;67.07;31.00;;;;;;;;;;5071642;28;20441;-67
2021/11/04 04:00:25;;;;;;;64.00;30.58;;;;;;;;;;5070297;28;20408;-66
2021/11/04 04:02:51;;;;;;;66.97;30.40;;;;;;;;;;5071336;28;20510;-66
2021/11/04 04:05:26;;;;;;;72.13;33.85;;;;;;;;;;5069991;28;20056;-66
2021/11/04 04:07:52;;;;;;;63.50;29.65;;;;;;;;;;5071628;28;20048;-66
2021/11/04 04:10:18;;;;;;;68.65;29.88;;;;;;;;;;5071618;28;20470;-66
2021/11/04 04:12:44;;;;;;;74.28;32.60;;;;;;;;;;5070052;28;20067;-67
2021/11/04 04:15:10;;;;;;;65.72;31.50;;;;;;;;;;5070282;28;20071;-66
2021/11/04 04:17:36;;;;;;;66.47;30.63;;;;;;;;;;5071457;28;20158;-66
2021/11/04 04:20:02;;;;;;;62.40;28.70;;;;;;;;;;5070017;28;20032;-66
2021/11/04 04:22:28;;;;;;;68.75;33.88;;;;;;;;;;5070025;28;20490;-66
2021/11/04 04:24:54;;;;;;;68.10;30.65;;;;;;;;;;5069841;28;20025;-66
2021/11/04 04:27:20;;;;;;;67.97;27.83;;;;;;;;;;5071322;28;20549;-66
2021/11/04 04:29:46;;;;;;;58.92;28.33;;;;;;;;;;5070000;28;20112;-67
2021/11/04 04:32:12;;;;;;;75.57;32.55;;;;;;;;;;5071457;28;20361;-66
2021/11/04 04:34:39;;;;;;;61.65;29.70;;;;;;;;;;5070687;28;20021;-66
2021/11/04 04:37:05;;;;;;;64.18;30.95;;;;;;;;;;5069555;28;20488;-67
2021/11/04 04:39:33;;;;;;;63.15;26.77;;;;;;;;;;5069739;28;20021;-67
2021/11/04 04:41:59;;;;;;;64.85;28.75;;;;;;;;;;5070732;28;20074;-66
2021/11/04 04:44:25;;;;;;;74.70;35.28;;;;;;;;;;5069265;28;20490;-66
2021/11/04 04:46:51;;;;;;;73.93;31.25;;;;;;;;;;5070784;28;20095;-67
2021/11/04 04:49:17;;;;;;;73.03;30.40;;;;;;;;;;5070844;28;20025;-66
2021/11/04 04:51:42;;;;;;;66.72;29.95;;;;;;;;;;5070763;28;20391;-67
2021/11/04 04:54:09;;;;;;;66.40;30.55;;;;;;;;;;5070561;28;20039;-67
2021/11/04 04:56:34;;;;;;;69.20;31.23;;;;;;;;;;5070490;28;20063;-66
2021/11/04 04:59:01;;;;;;;77.07;31.02;;;;;;;;;;5070652;28;20064;-66
2021/11/04 05:01:28;;;;;;;71.32;30.27;;;;;;;;;;5070948;28;20021;-67
2021/11/04 05:03:54;;;;;;;69.78;31.42;;;;;;;;;;5067949;28;20044;-66
2021/11/04 05:06:20;;;;;;;72.63;32.92;;;;;;;;;;5061567;28;20090;-66
2021/11/04 05:08:46;;;;;;;72.22;30.90;;;;;;;;;;5058311;28;20031;-66
2021/11/04 05:11:12;;;;;;;73.65;31.08;;;;;;;;;;5049336;28;20131;-67
2021/11/04 05:13:38;;;;;;;68.47;31.05;;;;;;;;;;5068386;28;20028;-66
2021/11/04 05:16:04;;;;;;;71.47;31.27;;;;;;;;;;5070530;28;20066;-66
2021/11/04 05:18:30;;;;;;;68.97;29.08;;;;;;;;;;5069055;28;20147;-66
2021/11/04 05:20:56;;;;;;;72.50;32.53;;;;;;;;;;5062769;28;20028;-66
2021/11/04 05:23:22;;;;;;;72.57;29.40;;;;;;;;;;5050295;28;20036;-66
2021/11/04 05:25:49;;;;;;;65.35;29.33;;;;;;;;;;5050160;28;20055;-65
2021/11/04 05:28:16;;;;;;;64.88;30.23;;;;;;;;;;5101158;22;20052;-65
2021/11/04 05:30:42;;;;;;;63.08;29.33;;;;;;;;;;5090120;28;20047;-66
2021/11/04 05:33:09;;;;;;;65.63;29.80;;;;;;;;;;5090400;28;20455;-66
2021/11/04 05:35:35;;;;;;;60.10;29.27;;;;;;;;;;5090273;28;20024;-66
2021/11/04 05:38:01;;;;;;;55.92;27.58;;;;;;;;;;5091552;28;20103;-65
2021/11/04 05:40:27;;;;;;;65.57;30.20;;;;;;;;;;5091095;28;20028;-65
2021/11/04 05:42:53;;;;;;;66.22;28.23;;;;;;;;;;5091380;28;20089;-64
2021/11/04 05:45:19;;;;;;;62.60;28.33;;;;;;;;;;5089398;28;20017;-64
2021/11/04 05:47:45;;;;;;;61.22;28.08;;;;;;;;;;5089125;28;20024;-64
2021/11/04 05:50:12;;;;;;;64.90;27.85;;;;;;;;;;5089054;28;20043;-65
2021/11/04 05:52:38;;;;;;;68.47;29.48;;;;;;;;;;5091120;28;20035;-65
2021/11/04 05:55:04;;;;;;;67.82;29.77;;;;;;;;;;5089486;28;20020;-66
2021/11/04 05:57:30;;;;;;;66.28;27.13;;;;;;;;;;5090856;28;20062;-67
2021/11/04 05:59:56;;;;;;;64.63;28.70;;;;;;;;;;5090629;28;20055;-66
2021/11/04 06:02:23;;;;;;;71.22;29.40;;;;;;;;;;5090606;28;20283;-66
2021/11/04 06:04:50;;;;;;;59.58;28.25;;;;;;;;;;5090386;28;20444;-66
2021/11/04 06:07:16;;;;;;;61.67;26.65;;;;;;;;;;5089142;28;20020;-64
2021/11/04 06:09:45;;;;;;;60.88;28.00;;;;;;;;;;5091981;28;20100;-65
2021/11/04 06:12:11;;;;;;;57.88;28.88;;;;;;;;;;5094106;28;20013;-66
2021/11/04 06:14:38;;;;;;;54.17;26.75;;;;;;;;;;5094140;28;20095;-65
2021/11/04 06:17:04;;;;;;;55.88;28.58;;;;;;;;;;5093972;28;20025;-65
2021/11/04 06:19:30;;;;;;;59.42;27.80;;;;;;;;;;5094203;28;20115;-64
2021/11/04 06:21:56;;;;;;;57.13;26.65;;;;;;;;;;5092643;28;20052;-65
2021/11/04 06:24:22;;;;;;;59.03;26.02;;;;;;;;;;5092322;28;20032;-65
2021/11/04 06:26:48;;;;;;;59.05;28.00;;;;;;;;;;5094163;28;20040;-66
2021/11/04 06:29:14;;;;;;;58.53;28.25;;;;;;;;;;5092598;28;20042;-66
2021/11/04 06:31:40;;;;;;;55.85;25.90;;;;;;;;;;5093920;28;20024;-65
2021/11/04 06:34:06;;;;;;;59.00;27.42;;;;;;;;;;5092055;28;20484;-64
2021/11/04 06:36:32;;;;;;;56.53;24.92;;;;;;;;;;5094043;28;20031;-65
2021/11/04 06:39:00;;;;;;;54.10;25.08;;;;;;;;;;5094040;28;20503;-67
2021/11/04 06:41:26;;;;;;;53.05;25.67;;;;;;;;;;5092798;28;20025;-64
2021/11/04 06:43:52;;;;;;;50.97;24.10;;;;;;;;;;5093627;28;20020;-67
2021/11/04 06:46:22;;;;;;;49.30;24.30;;;;;;;;;;5092244;28;20487;-65
2021/11/04 06:48:51;;;;;;;46.65;23.35;;;;;;;;;;5093924;28;20046;-67
2021/11/04 06:51:18;;;;;;;45.95;22.80;;;;;;;;;;5093666;28;20103;-66
2021/11/04 06:53:46;;;;;;;53.38;23.90;;;;;;;;;;5093144;28;20074;-64
2021/11/04 06:56:12;;;;;;;52.38;23.95;;;;;;;;;;5093386;28;20047;-66
2021/11/04 06:58:38;;;;;;;48.35;23.50;;;;;;;;;;5093307;28;20094;-61
2021/11/04 07:01:25;;;;;;;45.28;21.88;;;;;;;;;;5092210;28;20376;-64
2021/11/04 07:03:51;;;;;;;46.50;23.85;;;;;;;;;;5091486;28;20402;-65
2021/11/04 07:06:24;;;;;;;48.58;23.33;;;;;;;;;;5092558;28;20020;-63
2021/11/04 07:08:55;;;;;;;44.75;22.20;;;;;;;;;;5092638;28;20022;-66
2021/11/04 07:11:21;;;;;;;45.53;22.65;;;;;;;;;;5092088;28;20032;-65
2021/11/04 07:13:49;;;;;;;47.97;24.50;;;;;;;;;;5092618;28;20523;-67
2021/11/04 07:16:15;;;;;;;41.80;19.90;;;;;;;;;;5091150;28;20027;-66
2021/11/04 07:18:41;;;;;;;47.28;21.52;;;;;;;;;;5092875;28;20035;-67
2021/11/04 07:21:12;;;;;;;44.50;23.77;;;;;;;;;;5091141;28;20056;-66
2021/11/04 07:23:46;;;;;;;43.35;20.77;;;;;;;;;;5091043;28;20028;-64
2021/11/04 07:26:12;;;;;;;42.10;21.08;;;;;;;;;;5092576;28;20028;-65
2021/11/04 07:28:39;;;;;;;42.03;20.63;;;;;;;;;;5091472;28;20169;-64
2021/11/04 07:31:11;;;;;;;42.15;21.45;;;;;;;;;;5092281;28;20433;-61
2021/11/04 07:33:41;;;;;;;39.72;20.23;;;;;;;;;;5092282;28;20474;-63
2021/11/04 07:36:08;;;;;;;36.38;19.58;;;;;;;;;;5090694;28;20120;-65
2021/11/04 07:38:34;;;;;;;35.80;19.98;;;;;;;;;;5091144;28;20024;-64
2021/11/04 07:41:00;;;;;;;39.40;19.75;;;;;;;;;;5091755;28;20046;-65
2021/11/04 07:43:29;;;;;;;37.10;20.42;;;;;;;;;;5092108;28;20452;-63
2021/11/04 07:45:55;;;;;;;38.03;17.88;;;;;;;;;;5092618;28;20019;-64
2021/11/04 07:48:23;;;;;;;35.83;17.88;;;;;;;;;;5093170;28;20019;-64
2021/11/04 07:50:50;;;;;;;33.30;17.27;;;;;;;;;;5092939;28;20024;-64
2021/11/04 07:53:16;;;;;;;35.92;18.45;;;;;;;;;;5091075;28;20028;-63
2021/11/04 07:55:42;;;;;;;33.53;16.95;;;;;;;;;;5093094;28;20481;-64
2021/11/04 07:58:08;;;;;;;37.92;19.58;;;;;;;;;;5092282;28;20063;-63
2021/11/04 08:00:34;;;;;;;34.03;17.52;;;;;;;;;;5092298;28;20032;-63
2021/11/04 08:03:00;;;;;;;33.10;15.32;;;;;;;;;;5090715;28;20111;-64
2021/11/04 08:05:26;;;;;;;34.58;18.58;;;;;;;;;;5089845;28;20048;-64
2021/11/04 08:07:52;;;;;;;34.80;17.08;;;;;;;;;;5091018;28;20122;-64
2021/11/04 08:10:19;;;;;;;36.85;17.55;;;;;;;;;;5091843;28;20103;-64
2021/11/04 08:12:45;;;;;;;38.85;17.42;;;;;;;;;;5092832;28;20020;-64
2021/11/04 08:15:12;;;;;;;29.27;14.63;;;;;;;;;;5092026;28;20501;-64
2021/11/04 08:17:38;;;;;;;33.78;16.02;;;;;;;;;;5092433;28;20024;-64
2021/11/04 08:20:05;;;;;;;34.78;16.45;;;;;;;;;;5092340;28;20444;-65
2021/11/04 08:22:32;;;;;;;32.83;16.67;;;;;;;;;;5091955;28;20103;-63
2021/11/04 08:24:58;;;;;;;33.15;16.85;;;;;;;;;;5090107;28;20506;-64
2021/11/04 08:27:24;;;;;;;31.65;15.82;;;;;;;;;;5090457;28;20516;-65
2021/11/04 08:29:50;;;;;;;34.95;16.35;;;;;;;;;;5090388;28;20052;-65
2021/11/04 08:32:16;;;;;;;32.00;15.13;;;;;;;;;;5090256;28;20205;-65
2021/11/04 08:34:42;;;;;;;33.90;15.10;;;;;;;;;;5091408;28;20463;-64
2021/11/04 08:37:09;;;;;;;33.83;18.35;;;;;;;;;;5090274;28;20108;-65
2021/11/04 08:39:35;;;;;;;30.30;14.68;;;;;;;;;;5091264;28;20024;-63
2021/11/04 08:42:02;;;;;;;31.02;16.63;;;;;;;;;;5091232;28;20028;-64
2021/11/04 08:44:28;;;;;;;29.33;14.98;;;;;;;;;;5091221;28;20032;-64
2021/11/04 08:46:55;;;;;;;29.50;15.50;;;;;;;;;;5090695;28;20077;-64
2021/11/04 08:49:21;;;;;;;29.90;14.40;;;;;;;;;;5091739;28;20121;-64
2021/11/04 08:51:47;;;;;;;32.05;16.52;;;;;;;;;;5078040;28;20062;-64
2021/11/04 08:54:13;;;;;;;28.50;14.43;;;;;;;;;;5069405;28;20032;-66
2021/11/04 08:56:40;;;;;;;30.00;14.50;;;;;;;;;;5071272;28;20096;-66
2021/11/04 08:59:06;;;;;;;31.00;14.55;;;;;;;;;;5071284;28;20024;-65
2021/11/04 09:01:34;;;;;;;31.92;14.82;;;;;;;;;;5071552;28;20020;-62
2021/11/04 09:04:00;;;;;;;33.25;16.13;;;;;;;;;;5070653;28;20028;-66
2021/11/04 09:06:26;;;;;;;28.85;14.05;;;;;;;;;;5086610;28;20108;-65
2021/11/04 09:08:52;;;;;;;33.22;15.85;;;;;;;;;;5090891;28;20024;-65
2021/11/04 09:11:18;;;;;;;27.88;14.38;;;;;;;;;;5091322;28;20036;-64
2021/11/04 09:13:44;;;;;;;28.83;14.50;;;;;;;;;;5089746;28;20127;-65
2021/11/04 09:16:10;;;;;;;30.15;14.05;;;;;;;;;;5091197;28;20020;-65
2021/11/04 09:18:36;;;;;;;29.70;13.52;;;;;;;;;;5091280;28;20028;-65
2021/11/04 09:21:02;;;;;;;26.45;13.95;;;;;;;;;;5090215;28;20020;-65
2021/11/04 09:23:28;;;;;;;31.40;14.95;;;;;;;;;;5089877;28;20028;-64
2021/11/04 09:25:54;;;;;;;29.70;14.48;;;;;;;;;;5091437;28;20027;-64
2021/11/04 09:28:20;;;;;;;31.10;14.70;;;;;;;;;;5089910;28;20024;-64
2021/11/04 09:30:46;;;;;;;29.35;14.60;;;;;;;;;;5091026;28;20113;-64
2021/11/04 09:33:14;;;;;;;31.45;16.27;;;;;;;;;;5090840;28;20024;-64
2021/11/04 09:35:40;;;;;;;27.00;13.55;;;;;;;;;;5089894;28;20028;-63
2021/11/04 09:38:06;;;;;;;29.20;14.52;;;;;;;;;;5091250;28;20035;-64
2021/11/04 09:40:33;;;;;;;29.45;14.77;;;;;;;;;;5089949;28;20376;-64
2021/11/04 09:42:59;;;;;;;26.92;13.52;;;;;;;;;;5089789;28;20035;-65
2021/11/04 09:45:27;;;;;;;29.02;12.32;;;;;;;;;;5092744;28;20035;-64
2021/11/04 09:47:53;;;;;;;27.20;12.02;;;;;;;;;;5093939;28;20050;-63
2021/11/04 09:50:19;;;;;;;28.13;13.80;;;;;;;;;;5093845;28;20057;-65
2021/11/04 09:52:47;;;;;;;30.65;13.32;;;;;;;;;;5094074;28;20446;-63
2021/11/04 09:55:18;;;;;;;30.40;13.93;;;;;;;;;;5094887;28;20027;-64
2021/11/04 09:57:45;;;;;;;28.65;13.35;;;;;;;;;;5093885;28;20078;-64
2021/11/04 10:00:11;;;;;;;30.45;13.85;;;;;;;;;;5094870;28;20468;-64
2021/11/04 10:02:39;;;;;;;27.63;12.98;;;;;;;;;;5093237;28;20070;-65
2021/11/04 10:05:09;;;;;;;28.10;13.32;;;;;;;;;;5092703;28;20024;-63
2021/11/04 10:07:42;;;;;;;27.67;14.10;;;;;;;;;;5093750;28;20024;-65
2021/11/04 10:10:09;;;;;;;24.58;11.20;;;;;;;;;;5093377;28;20024;-65
2021/11/04 10:12:35;;;;;;;26.15;12.80;;;;;;;;;;5093554;28;20028;-64
2021/11/04 10:15:15;;;;;;;25.80;12.00;;;;;;;;;;5094523;28;20028;-65
2021/11/04 10:17:42;;;;;;;26.30;11.38;;;;;;;;;;5094349;28;20073;-63
2021/11/04 10:20:16;;;;;;;25.73;12.32;;;;;;;;;;5093213;28;20346;-64
2021/11/04 10:22:42;;;;;;;25.70;11.18;;;;;;;;;;5094325;28;20027;-64
2021/11/04 10:25:24;;;;;;;25.58;11.55;;;;;;;;;;5094179;28;20441;-64
2021/11/04 10:27:51;;;;;;;27.00;11.75;;;;;;;;;;5093624;28;20038;-65
2021/11/04 10:30:37;;;;;;;25.38;11.45;;;;;;;;;;5093107;28;20024;-67
2021/11/04 10:33:18;;;;;;;24.55;12.55;;;;;;;;;;5092885;28;20020;-67
2021/11/04 10:35:49;;;;;;;24.67;11.40;;;;;;;;;;5094862;28;20024;-65
2021/11/04 10:38:15;;;;;;;25.23;11.85;;;;;;;;;;5093204;28;20369;-66
2021/11/04 10:40:41;;;;;;;23.30;11.20;;;;;;;;;;5093978;28;20031;-66
2021/11/04 10:43:07;;;;;;;23.52;10.75;;;;;;;;;;5092818;28;20028;-67
2021/11/04 10:45:33;;;;;;;23.50;10.82;;;;;;;;;;5094268;28;20390;-67
2021/11/04 10:48:18;;;;;;;27.38;11.80;;;;;;;;;;5092532;28;20024;-68
2021/11/04 10:50:45;;;;;;;24.13;11.15;;;;;;;;;;5092735;28;20111;-66
2021/11/04 10:53:12;;;;;;;23.50;10.85;;;;;;;;;;5092237;28;20035;-65
2021/11/04 10:55:39;;;;;;;23.58;11.52;;;;;;;;;;5093878;28;20024;-66
2021/11/04 10:58:07;;;;;;;24.05;10.75;;;;;;;;;;5094060;28;20063;-66
2021/11/04 11:00:40;;;;;;;21.30;10.32;;;;;;;;;;5093831;28;20135;-66
2021/11/04 11:03:08;;;;;;;22.63;10.70;;;;;;;;;;5093444;28;20095;-64
2021/11/04 11:05:36;;;;;;;23.35;10.70;;;;;;;;;;5093249;28;20479;-66
2021/11/04 11:08:02;;;;;;;21.35;10.27;;;;;;;;;;5092062;28;20081;-66
2021/11/04 11:10:28;;;;;;;21.15;10.80;;;;;;;;;;5092126;28;20039;-66
2021/11/04 11:12:54;;;;;;;26.75;13.02;;;;;;;;;;5093286;28;20024;-67
2021/11/04 11:15:20;;;;;;;23.80;11.77;;;;;;;;;;5093138;28;20476;-66
2021/11/04 11:17:47;;;;;;;24.55;12.35;;;;;;;;;;5092665;28;20047;-65
2021/11/04 11:20:14;;;;;;;23.00;11.52;;;;;;;;;;5092776;28;20106;-66
2021/11/04 11:22:42;;;;;;;26.42;13.20;;;;;;;;;;5092858;28;20020;-66
2021/11/04 11:25:08;;;;;;;25.67;12.98;;;;;;;;;;5090941;28;20031;-66
2021/11/04 11:27:34;;;;;;;23.48;12.50;;;;;;;;;;5103089;22;20047;-67
2021/11/04 11:30:00;;;;;;;23.33;12.30;;;;;;;;;;5076391;28;20020;-67
2021/11/04 11:32:28;;;;;;;25.40;13.15;;;;;;;;;;5093731;28;20042;-64
2021/11/04 11:35:16;;;;;;;27.75;13.88;;;;;;;;;;5091348;28;20059;-66
2021/11/04 11:38:01;;;;;;;26.42;13.10;;;;;;;;;;5093989;28;20019;-67
2021/11/04 11:40:28;;;;;;;26.27;13.73;;;;;;;;;;5075584;28;20070;-67
2021/11/04 11:43:12;;;;;;;24.48;13.60;;;;;;;;;;5093944;28;20032;-66
2021/11/04 11:45:40;;;;;;;26.65;14.23;;;;;;;;;;5093894;28;20016;-67
2021/11/04 11:48:16;;;;;;;23.90;12.25;;;;;;;;;;5075193;28;20073;-67
2021/11/04 11:50:44;;;;;;;23.02;11.95;;;;;;;;;;5075592;28;20065;-66
2021/11/04 11:53:19;;;;;;;25.55;13.35;;;;;;;;;;5093722;28;20056;-66
2021/11/04 11:55:47;;;;;;;22.23;11.65;;;;;;;;;;5075236;28;20027;-68
2021/11/04 11:58:19;;;;;;;25.97;12.13;;;;;;;;;;5094194;28;20483;-66
2021/11/04 12:00:54;;;;;;;23.20;11.75;;;;;;;;;;5093665;28;20479;-66
2021/11/04 12:03:41;;;;;;;22.73;10.98;;;;;;;;;;5075576;28;20060;-66
2021/11/04 12:06:15;;;;;;;22.25;11.70;;;;;;;;;;5088191;28;20513;-66
2021/11/04 12:08:46;;;;;;;22.75;11.88;;;;;;;;;;5094694;28;20438;-66
2021/11/04 12:11:32;;;;;;;25.48;12.57;;;;;;;;;;5113660;28;20097;-67
2021/11/04 12:13:58;;;;;;;23.00;11.50;;;;;;;;;;5094834;28;20130;-67
2021/11/04 12:16:24;;;;;;;22.60;12.02;;;;;;;;;;5095081;28;20563;-67
2021/11/04 12:18:53;;;;;;;21.15;11.27;;;;;;;;;;5106396;28;20020;-67
2021/11/04 12:21:20;;;;;;;23.80;11.85;;;;;;;;;;5092296;28;20436;-66
2021/11/04 12:23:46;;;;;;;23.92;12.40;;;;;;;;;;5092447;28;20088;-65
2021/11/04 12:26:14;;;;;;;21.75;12.23;;;;;;;;;;5093297;28;20017;-66
2021/11/04 12:28:44;;;;;;;22.47;12.90;;;;;;;;;;5074705;28;20038;-66
2021/11/04 12:31:15;;;;;;;20.48;12.73;;;;;;;;;;5093103;28;20013;-65
2021/11/04 12:33:41;;;;;;;22.23;13.05;;;;;;;;;;5074192;28;20722;-66
2021/11/04 12:36:07;;;;;;;21.98;14.23;;;;;;;;;;5075152;28;20031;-66
2021/11/04 12:38:46;;;;;;;22.27;14.23;;;;;;;;;;5092788;28;20452;-66
2021/11/04 12:41:16;;;;;;;22.77;14.25;;;;;;;;;;5074809;28;20020;-67
2021/11/04 12:43:43;;;;;;;23.17;15.25;;;;;;;;;;5073333;28;20080;-66
2021/11/04 12:46:25;;;;;;;23.45;13.88;;;;;;;;;;5073902;28;20035;-66
2021/11/04 12:48:56;;;;;;;23.75;14.07;;;;;;;;;;5073132;28;20506;-66
2021/11/04 12:51:23;;;;;;;24.23;14.68;;;;;;;;;;5073887;28;20028;-66
2021/11/04 12:53:56;;;;;;;22.52;14.38;;;;;;;;;;5091697;28;20020;-65
2021/11/04 12:56:37;;;;;;;23.70;14.63;;;;;;;;;;5091654;28;20032;-66
2021/11/04 12:59:03;;;;;;;24.67;15.13;;;;;;;;;;5073788;28;20047;-66
2021/11/04 13:01:29;;;;;;;22.08;13.98;;;;;;;;;;5075798;28;20032;-65
2021/11/04 13:03:55;;;;;;;22.50;13.80;;;;;;;;;;5092090;28;20024;-66
2021/11/04 13:06:22;;;;;;;22.27;14.05;;;;;;;;;;5088725;28;20491;-66
2021/11/04 13:08:48;;;;;;;22.70;15.20;;;;;;;;;;5093921;28;20077;-66
2021/11/04 13:11:15;;;;;;;22.95;14.90;;;;;;;;;;5112670;28;20441;-66
2021/11/04 13:13:58;;;;;;;21.95;14.50;;;;;;;;;;5111822;28;20108;-64
2021/11/04 13:16:25;;;;;;;23.90;14.80;;;;;;;;;;5112495;28;20031;-66
2021/11/04 13:18:51;;;;;;;21.95;15.60;;;;;;;;;;5094101;28;20483;-65
2021/11/04 13:21:22;;;;;;;22.05;14.88;;;;;;;;;;5116678;28;20081;-66
2021/11/04 13:23:48;;;;;;;23.00;15.95;;;;;;;;;;5097919;28;20083;-66
2021/11/04 13:26:14;;;;;;;23.15;16.95;;;;;;;;;;5097886;28;20020;-64
2021/11/04 13:28:40;;;;;;;22.30;16.25;;;;;;;;;;5116075;28;20114;-66
2021/11/04 13:31:09;;;;;;;22.48;16.30;;;;;;;;;;5098197;28;20057;-66
2021/11/04 13:33:39;;;;;;;24.55;16.75;;;;;;;;;;5097593;28;20080;-66
2021/11/04 13:36:10;;;;;;;22.52;15.73;;;;;;;;;;5116172;28;20436;-66
2021/11/04 13:38:55;;;;;;;23.17;15.55;;;;;;;;;;5116031;28;20031;-66
2021/11/04 13:41:31;;;;;;;23.67;16.08;;;;;;;;;;5116360;28;20051;-65
2021/11/04 13:43:59;;;;;;;22.15;14.98;;;;;;;;;;5097595;28;20164;-66
2021/11/04 13:46:25;;;;;;;23.27;15.18;;;;;;;;;;5116049;28;20474;-65
2021/11/04 13:48:53;;;;;;;23.98;15.70;;;;;;;;;;5097318;28;20024;-66
2021/11/04 13:51:45;;;;;;;23.35;14.85;;;;;;;;;;5116075;28;20016;-67
2021/11/04 13:54:15;;;;;;;23.05;15.57;;;;;;;;;;5092944;28;20032;-66
2021/11/04 13:56:43;;;;;;;23.40;15.27;;;;;;;;;;5097748;28;20031;-65
2021/11/04 13:59:12;;;;;;;25.75;15.38;;;;;;;;;;5116259;28;20034;-65
2021/11/04 14:01:48;;;;;;;23.25;16.02;;;;;;;;;;5115708;28;20034;-66
2021/11/04 14:04:14;;;;;;;23.55;15.23;;;;;;;;;;5096947;28;20441;-65
2021/11/04 14:06:47;;;;;;;25.15;16.65;;;;;;;;;;5115255;28;20023;-66
2021/11/04 14:09:26;;;;;;;23.75;14.07;;;;;;;;;;5097419;28;20024;-65
2021/11/04 14:11:51;;;;;;;;;;;;;;;;;;5115473;28;20026;-66
2021/11/04 14:14:17;;;;;;;22.85;12.95;;;;;;;;;;5115823;28;20398;-67
2021/11/04 14:16:47;;;;;;;23.92;13.80;;;;;;;;;;5096948;28;20032;-66
2021/11/04 14:19:14;;;;;;;25.23;15.30;;;;;;;;;;5115540;28;20115;-66
2021/11/04 14:21:41;;;;;;;24.77;14.43;;;;;;;;;;5115387;28;20502;-66
2021/11/04 14:24:07;;;;;;;24.77;15.00;;;;;;;;;;5114929;28;20110;-65